createdAt,value
2019-03-05T00:01:57.339Z,56.00
2019-03-05T00:04:28.955Z,55.88
2019-03-05T00:07:00.591Z,55.79
2019-03-05T00:09:32.274Z,55.71
2019-03-05T00:12:04.317Z,55.68
2019-03-05T00:14:35.969Z,55.63
2019-03-05T00:17:07.609Z,55.55
2019-03-05T00:19:39.248Z,55.46
2019-03-05T00:22:10.900Z,55.39
2019-03-05T00:25:17.675Z,55.35
2019-03-05T00:28:03.341Z,55.31
2019-03-05T00:31:01.463Z,55.19
2019-03-05T00:34:11.318Z,55.14
2019-03-05T00:36:58.025Z,55.15
2019-03-05T00:40:13.369Z,55.17
2019-03-05T00:43:52.399Z,55.19
2019-03-05T00:48:01.163Z,55.17
2019-03-05T00:51:25.301Z,55.18
2019-03-05T00:55:12.047Z,55.20
2019-03-05T00:58:29.341Z,55.22
2019-03-05T01:01:47.817Z,55.26
2019-03-05T01:05:15.228Z,55.28
2019-03-05T01:07:47.254Z,55.27
2019-03-05T01:10:19.152Z,55.28
2019-03-05T01:12:50.938Z,55.29
2019-03-05T01:15:22.614Z,55.25
2019-03-05T01:17:54.269Z,55.22
2019-03-05T01:20:37.647Z,55.19
2019-03-05T01:23:09.665Z,55.19
2019-03-05T01:25:41.293Z,55.17
2019-03-05T01:28:13.050Z,55.14
2019-03-05T01:31:19.161Z,55.14
2019-03-05T01:34:05.275Z,55.14
2019-03-05T01:36:41.211Z,55.15
2019-03-05T01:39:30.250Z,55.19
2019-03-05T01:42:02.128Z,55.26
2019-03-05T01:44:33.742Z,55.25
2019-03-05T01:47:05.562Z,55.28
2019-03-05T01:49:38.229Z,55.22
2019-03-05T01:52:09.834Z,55.21
2019-03-05T01:54:41.975Z,55.18
2019-03-05T01:57:13.592Z,55.12
2019-03-05T01:59:45.238Z,55.12
2019-03-05T02:02:16.898Z,55.11
2019-03-05T02:04:48.724Z,55.08
2019-03-05T02:07:20.431Z,55.07
2019-03-05T02:09:52.177Z,55.01
2019-03-05T02:12:23.829Z,54.97
2019-03-05T02:14:55.601Z,54.93
2019-03-05T02:17:27.297Z,54.92
2019-03-05T02:19:59.285Z,54.94
2019-03-05T02:22:41.239Z,54.98
2019-03-05T02:25:56.724Z,55.00
2019-03-05T02:29:49.814Z,55.01
2019-03-05T02:33:30.704Z,55.01
2019-03-05T02:36:44.379Z,55.00
2019-03-05T02:40:28.337Z,55.02
2019-03-05T02:43:36.695Z,55.05
2019-03-05T02:47:01.480Z,55.11
2019-03-05T02:50:26.937Z,55.22
2019-03-05T02:53:48.677Z,55.29
2019-03-05T02:56:58.342Z,55.41
2019-03-05T02:59:29.912Z,55.55
2019-03-05T03:02:08.505Z,55.74
2019-03-05T03:04:43.189Z,55.88
2019-03-05T03:07:14.820Z,56.02
2019-03-05T03:10:19.521Z,56.11
2019-03-05T03:12:51.390Z,56.21
2019-03-05T03:15:23.164Z,56.21
2019-03-05T03:17:54.879Z,56.31
2019-03-05T03:20:26.616Z,56.36
2019-03-05T03:22:58.275Z,56.43
2019-03-05T03:25:29.874Z,56.44
2019-03-05T03:28:01.506Z,56.43
2019-03-05T03:30:33.195Z,56.46
2019-03-05T03:33:05.121Z,56.43
2019-03-05T03:35:36.775Z,56.47
2019-03-05T03:38:08.653Z,56.52
2019-03-05T03:40:40.258Z,56.54
2019-03-05T03:43:11.878Z,56.54
2019-03-05T03:45:43.490Z,56.62
2019-03-05T03:48:15.708Z,56.63
2019-03-05T03:50:47.409Z,56.70
2019-03-05T03:53:19.045Z,56.68
2019-03-05T03:55:50.682Z,56.64
2019-03-05T03:58:22.314Z,56.67
2019-03-05T04:00:54.035Z,56.70
2019-03-05T04:03:25.680Z,56.70
2019-03-05T04:05:57.439Z,56.64
2019-03-05T04:08:29.350Z,56.70
2019-03-05T04:11:00.976Z,56.71
2019-03-05T04:13:34.727Z,56.72
2019-03-05T04:16:07.929Z,56.68
2019-03-05T04:18:41.150Z,56.66
2019-03-05T04:21:12.784Z,56.69
2019-03-05T04:23:44.617Z,56.68
2019-03-05T04:26:16.554Z,56.67
2019-03-05T04:28:48.293Z,56.68
2019-03-05T04:31:19.888Z,56.69
2019-03-05T04:33:51.794Z,56.67
2019-03-05T04:36:23.398Z,56.67
2019-03-05T04:38:55.439Z,56.73
2019-03-05T04:41:27.355Z,56.71
2019-03-05T04:43:59.027Z,56.74
2019-03-05T04:46:34.844Z,56.76
2019-03-05T04:49:26.658Z,56.76
2019-03-05T04:52:01.843Z,56.75
2019-03-05T04:54:33.633Z,56.76
2019-03-05T04:57:05.517Z,56.73
2019-03-05T04:59:37.181Z,56.74
2019-03-05T05:02:09.031Z,56.75
2019-03-05T05:04:40.671Z,56.76
2019-03-05T05:07:13.455Z,56.79
2019-03-05T05:09:45.469Z,56.80
2019-03-05T05:12:17.110Z,56.81
2019-03-05T05:14:48.823Z,56.84
2019-03-05T05:17:20.438Z,56.86
2019-03-05T05:19:52.239Z,56.87
2019-03-05T05:22:24.288Z,56.84
2019-03-05T05:24:55.898Z,56.82
2019-03-05T05:27:28.253Z,56.81
2019-03-05T05:29:59.939Z,56.83
2019-03-05T05:32:31.928Z,56.86
2019-03-05T05:35:03.760Z,56.87
2019-03-05T05:37:35.415Z,56.86
2019-03-05T05:40:27.183Z,56.84
2019-03-05T05:42:59.249Z,56.80
2019-03-05T05:45:38.933Z,56.73
2019-03-05T05:48:10.550Z,56.74
2019-03-05T05:50:42.546Z,56.79
2019-03-05T05:53:14.274Z,56.90
2019-03-05T05:55:46.538Z,56.97
2019-03-05T05:58:18.276Z,57.07
2019-03-05T06:00:51.979Z,57.15
2019-03-05T06:03:24.111Z,57.22
2019-03-05T06:05:55.902Z,57.29
2019-03-05T06:08:27.581Z,57.37
2019-03-05T06:10:59.239Z,57.46
2019-03-05T06:13:30.988Z,57.48
2019-03-05T06:16:02.669Z,57.54
2019-03-05T06:18:34.362Z,57.56
2019-03-05T06:21:06.013Z,57.64
2019-03-05T06:23:37.695Z,57.64
2019-03-05T06:26:09.326Z,57.61
2019-03-05T06:28:41.230Z,57.60
2019-03-05T06:31:12.858Z,57.53
2019-03-05T06:33:44.500Z,57.49
2019-03-05T06:36:16.147Z,57.43
2019-03-05T06:38:47.828Z,57.40
2019-03-05T06:41:19.495Z,57.37
2019-03-05T06:43:51.337Z,57.33
2019-03-05T06:46:23.009Z,57.32
2019-03-05T06:48:54.878Z,57.29
2019-03-05T06:51:26.552Z,57.28
2019-03-05T06:53:58.225Z,57.24
2019-03-05T06:56:29.858Z,57.26
2019-03-05T06:59:01.627Z,57.25
2019-03-05T07:01:34.820Z,57.22
2019-03-05T07:04:06.640Z,57.21
2019-03-05T07:06:55.951Z,57.21
2019-03-05T07:09:54.844Z,57.23
2019-03-05T07:13:14.050Z,57.22
2019-03-05T07:16:41.543Z,57.23
2019-03-05T07:20:15.117Z,57.17
2019-03-05T07:23:01.108Z,57.09
2019-03-05T07:25:32.963Z,57.03
2019-03-05T07:28:04.641Z,57.04
2019-03-05T07:30:36.503Z,57.06
2019-03-05T07:33:08.153Z,57.03
2019-03-05T07:35:40.812Z,56.99
2019-03-05T07:38:12.997Z,56.94
2019-03-05T07:40:45.263Z,56.89
2019-03-05T07:43:16.978Z,56.89
2019-03-05T07:45:48.647Z,56.80
2019-03-05T07:48:20.379Z,56.86
2019-03-05T07:50:52.578Z,56.82
2019-03-05T07:53:24.233Z,56.80
2019-03-05T07:55:55.923Z,56.84
2019-03-05T07:58:27.991Z,56.88
2019-03-05T08:00:59.671Z,56.84
2019-03-05T08:03:31.475Z,56.73
2019-03-05T08:06:03.590Z,56.56
2019-03-05T08:09:30.496Z,56.47
2019-03-05T08:13:05.936Z,56.35
2019-03-05T08:16:26.931Z,56.20
2019-03-05T08:18:58.796Z,56.03
2019-03-05T08:21:30.662Z,55.80
2019-03-05T08:24:02.335Z,55.70
2019-03-05T08:26:34.016Z,55.49
2019-03-05T08:29:06.931Z,55.37
2019-03-05T08:31:38.748Z,55.22
2019-03-05T08:34:10.862Z,55.19
2019-03-05T08:36:43.068Z,55.05
2019-03-05T08:39:14.921Z,54.99
2019-03-05T08:41:46.629Z,54.75
2019-03-05T08:44:18.386Z,54.67
2019-03-05T08:46:50.062Z,54.67
2019-03-05T08:49:22.154Z,54.60
2019-03-05T08:51:53.962Z,54.42
2019-03-05T08:54:25.819Z,54.21
2019-03-05T08:57:02.882Z,54.25
2019-03-05T08:59:34.510Z,54.02
2019-03-05T09:02:06.347Z,53.97
2019-03-05T09:04:38.004Z,53.76
2019-03-05T09:07:09.683Z,53.67
2019-03-05T09:09:41.743Z,53.63
2019-03-05T09:12:13.734Z,53.60
2019-03-05T09:14:45.443Z,53.51
2019-03-05T09:17:17.376Z,53.40
2019-03-05T09:19:49.198Z,53.18
2019-03-05T09:22:20.809Z,52.92
2019-03-05T09:24:52.578Z,52.90
2019-03-05T09:27:24.281Z,52.98
2019-03-05T09:29:56.002Z,52.81
2019-03-05T09:32:27.680Z,52.66
2019-03-05T09:34:59.358Z,52.48
2019-03-05T09:37:31.037Z,52.45
2019-03-05T09:40:02.831Z,52.34
2019-03-05T09:42:39.773Z,52.45
2019-03-05T09:45:09.967Z,52.47
2019-03-05T09:47:41.628Z,52.58
2019-03-05T09:50:15.638Z,52.74
2019-03-05T09:52:55.028Z,52.93
2019-03-05T09:55:21.559Z,53.03
2019-03-05T09:58:07.598Z,53.21
2019-03-05T10:00:30.376Z,53.36
2019-03-05T10:03:02.089Z,53.55
2019-03-05T10:05:33.811Z,53.73
2019-03-05T10:08:05.812Z,53.79
2019-03-05T10:10:37.613Z,53.88
2019-03-05T10:13:09.422Z,53.96
2019-03-05T10:15:41.370Z,54.07
2019-03-05T10:18:13.360Z,54.10
2019-03-05T10:20:45.430Z,54.20
2019-03-05T10:23:17.124Z,54.24
2019-03-05T10:25:49.085Z,54.41
2019-03-05T10:28:21.688Z,54.52
2019-03-05T10:30:53.349Z,54.64
2019-03-05T10:33:25.039Z,54.60
2019-03-05T10:35:57.096Z,54.60
2019-03-05T10:38:28.741Z,54.73
2019-03-05T10:41:00.895Z,54.78
2019-03-05T10:43:33.199Z,54.83
2019-03-05T10:46:04.994Z,54.97
2019-03-05T10:48:36.855Z,55.12
2019-03-05T10:51:08.996Z,55.15
2019-03-05T10:53:40.802Z,55.23
2019-03-05T10:56:14.187Z,55.30
2019-03-05T10:58:46.079Z,55.24
2019-03-05T11:01:17.998Z,55.24
2019-03-05T11:03:49.754Z,55.36
2019-03-05T11:06:21.524Z,55.42
2019-03-05T11:08:53.213Z,55.46
2019-03-05T11:11:25.545Z,55.53
2019-03-05T11:13:57.185Z,55.59
2019-03-05T11:16:31.139Z,55.60
2019-03-05T11:19:02.424Z,55.62
2019-03-05T11:21:35.695Z,55.70
2019-03-05T11:24:08.081Z,55.72
2019-03-05T11:26:39.868Z,55.84
2019-03-05T11:29:11.765Z,55.97
2019-03-05T11:31:43.698Z,56.16
2019-03-05T11:34:15.618Z,56.32
2019-03-05T11:36:47.305Z,56.48
2019-03-05T11:39:19.020Z,56.58
2019-03-05T11:41:50.651Z,56.66
2019-03-05T11:44:22.485Z,56.81
2019-03-05T11:46:54.094Z,56.86
2019-03-05T11:49:26.284Z,56.96
2019-03-05T11:51:58.093Z,57.07
2019-03-05T11:54:29.895Z,57.17
2019-03-05T11:57:01.829Z,57.24
2019-03-05T11:59:33.809Z,57.22
2019-03-05T12:02:05.737Z,57.31
2019-03-05T12:04:38.991Z,57.38
2019-03-05T12:07:10.643Z,57.74
2019-03-05T12:09:42.589Z,57.58
2019-03-05T12:12:14.686Z,57.65
2019-03-05T12:14:46.566Z,57.71
2019-03-05T12:17:18.268Z,57.88
2019-03-05T12:19:50.023Z,57.87
2019-03-05T12:22:22.082Z,58.02
2019-03-05T12:24:57.644Z,58.05
2019-03-05T12:27:27.465Z,58.13
2019-03-05T12:29:59.566Z,58.15
2019-03-05T12:32:31.436Z,58.21
2019-03-05T12:35:03.139Z,58.34
2019-03-05T12:37:34.951Z,58.43
2019-03-05T12:40:07.986Z,58.53
2019-03-05T12:42:39.741Z,58.63
2019-03-05T12:45:12.616Z,58.66
2019-03-05T12:47:44.999Z,58.65
2019-03-05T12:50:18.901Z,58.71
2019-03-05T12:52:51.055Z,58.65
2019-03-05T12:55:23.177Z,58.69
2019-03-05T12:57:54.958Z,58.76
2019-03-05T13:00:28.401Z,58.78
2019-03-05T13:03:00.197Z,58.97
2019-03-05T13:05:31.889Z,59.15
2019-03-05T13:08:03.562Z,59.25
2019-03-05T13:10:37.401Z,59.21
2019-03-05T13:13:10.365Z,59.16
2019-03-05T13:15:42.552Z,59.20
2019-03-05T13:18:14.495Z,59.18
2019-03-05T13:20:46.250Z,59.19
2019-03-05T13:23:17.948Z,59.31
2019-03-05T13:25:49.688Z,59.36
2019-03-05T13:28:21.475Z,59.48
2019-03-05T13:30:53.278Z,59.57
2019-03-05T13:33:25.001Z,59.63
2019-03-05T13:35:57.151Z,59.70
2019-03-05T13:38:28.804Z,59.87
2019-03-05T13:41:00.539Z,59.93
2019-03-05T13:43:32.517Z,60.14
2019-03-05T13:46:04.418Z,60.15
2019-03-05T13:49:44.207Z,60.20
2019-03-05T13:53:14.500Z,60.28
2019-03-05T13:56:47.368Z,60.18
2019-03-05T13:59:59.603Z,60.14
2019-03-05T14:03:09.050Z,60.20
2019-03-05T14:06:33.794Z,60.33
2019-03-05T14:09:16.305Z,60.35
2019-03-05T14:11:50.314Z,60.42
2019-03-05T14:14:32.703Z,60.57
2019-03-05T14:17:19.990Z,60.62
2019-03-05T14:19:51.986Z,60.65
2019-03-05T14:22:23.659Z,60.62
2019-03-05T14:25:02.319Z,60.64
2019-03-05T14:27:29.126Z,60.73
2019-03-05T14:30:02.795Z,60.80
2019-03-05T14:32:34.552Z,60.77
2019-03-05T14:35:15.331Z,60.78
2019-03-05T14:37:47.233Z,60.81
2019-03-05T14:40:30.386Z,60.86
2019-03-05T14:43:02.507Z,60.88
2019-03-05T14:45:36.739Z,60.88
2019-03-05T14:48:08.480Z,60.88
2019-03-05T14:50:40.874Z,60.87
2019-03-05T14:53:12.734Z,60.87
2019-03-05T14:55:44.464Z,60.79
2019-03-05T14:58:16.359Z,60.77
2019-03-05T15:00:48.170Z,60.75
2019-03-05T15:03:19.839Z,60.78
2019-03-05T15:05:51.566Z,60.80
2019-03-05T15:08:23.634Z,60.93
2019-03-05T15:10:55.285Z,60.92
2019-03-05T15:13:27.036Z,61.01
2019-03-05T15:15:58.972Z,61.02
2019-03-05T15:18:30.672Z,61.01
2019-03-05T15:21:02.496Z,61.03
2019-03-05T15:23:34.209Z,61.07
2019-03-05T15:26:05.874Z,61.05
2019-03-05T15:28:37.874Z,60.96
2019-03-05T15:31:10.047Z,61.00
2019-03-05T15:33:41.965Z,60.96
2019-03-05T15:36:23.344Z,60.91
2019-03-05T15:38:47.727Z,60.92
2019-03-05T15:41:19.480Z,60.98
2019-03-05T15:43:51.229Z,60.99
2019-03-05T15:46:23.109Z,60.99
2019-03-05T15:48:55.324Z,60.96
2019-03-05T15:51:27.532Z,60.99
2019-03-05T15:53:59.336Z,61.00
2019-03-05T15:56:31.049Z,61.01
2019-03-05T15:59:02.796Z,60.97
2019-03-05T16:01:34.628Z,60.90
2019-03-05T16:04:06.278Z,60.86
2019-03-05T16:06:38.561Z,60.87
2019-03-05T16:09:18.994Z,60.80
2019-03-05T16:11:50.703Z,60.78
2019-03-05T16:14:22.389Z,60.76
2019-03-05T16:16:54.075Z,60.78
2019-03-05T16:19:25.855Z,60.76
2019-03-05T16:21:57.571Z,60.74
2019-03-05T16:24:29.755Z,60.68
2019-03-05T16:27:01.445Z,60.64
2019-03-05T16:29:33.233Z,60.59
2019-03-05T16:32:28.219Z,60.54
2019-03-05T16:35:21.867Z,60.46
2019-03-05T16:38:18.729Z,60.37
2019-03-05T16:41:17.044Z,60.35
2019-03-05T16:43:59.143Z,60.28
2019-03-05T16:46:52.736Z,60.21
2019-03-05T16:49:40.012Z,60.19
2019-03-05T16:52:37.271Z,60.16
2019-03-05T16:55:27.091Z,60.18
2019-03-05T16:58:16.205Z,60.17
2019-03-05T17:01:10.142Z,60.16
2019-03-05T17:03:59.315Z,60.13
2019-03-05T17:06:41.235Z,60.15
2019-03-05T17:09:34.871Z,60.17
2019-03-05T17:12:06.591Z,60.28
2019-03-05T17:14:38.521Z,60.41
2019-03-05T17:17:10.319Z,60.52
2019-03-05T17:19:42.304Z,60.55
2019-03-05T17:22:14.514Z,60.59
2019-03-05T17:24:46.408Z,60.59
2019-03-05T17:27:18.144Z,60.60
2019-03-05T17:29:49.864Z,60.60
2019-03-05T17:32:21.824Z,60.58
2019-03-05T17:34:53.857Z,60.59
2019-03-05T17:37:25.604Z,60.63
2019-03-05T17:39:57.407Z,60.67
2019-03-05T17:42:29.139Z,60.67
2019-03-05T17:45:00.858Z,60.67
2019-03-05T17:47:32.632Z,60.68
2019-03-05T17:50:04.898Z,60.70
2019-03-05T17:52:37.523Z,60.70
2019-03-05T17:55:12.316Z,60.72
2019-03-05T17:57:44.470Z,60.75
2019-03-05T18:00:27.505Z,60.75
2019-03-05T18:02:59.442Z,60.78
2019-03-05T18:05:31.842Z,60.79
2019-03-05T18:08:04.057Z,60.79
2019-03-05T18:10:35.826Z,60.79
2019-03-05T18:13:07.931Z,60.79
2019-03-05T18:15:39.845Z,60.78
2019-03-05T18:18:12.311Z,60.77
2019-03-05T18:20:44.985Z,60.75
2019-03-05T18:23:17.177Z,60.76
2019-03-05T18:25:48.898Z,60.79
2019-03-05T18:28:20.833Z,60.84
2019-03-05T18:30:52.850Z,60.90
2019-03-05T18:33:24.607Z,60.92
2019-03-05T18:35:56.374Z,60.93
2019-03-05T18:38:28.639Z,60.89
2019-03-05T18:41:00.488Z,60.85
2019-03-05T18:43:32.213Z,60.81
2019-03-05T18:46:03.988Z,60.81
2019-03-05T18:48:36.026Z,60.79
2019-03-05T18:51:08.400Z,60.78
2019-03-05T18:53:59.638Z,60.76
2019-03-05T18:56:31.127Z,60.73
2019-03-05T18:59:03.164Z,60.71
2019-03-05T19:01:36.519Z,60.70
2019-03-05T19:04:08.981Z,60.72
2019-03-05T19:06:40.815Z,60.78
2019-03-05T19:09:13.051Z,60.82
2019-03-05T19:11:44.844Z,60.83
2019-03-05T19:14:16.850Z,60.86
2019-03-05T19:16:48.630Z,60.88
2019-03-05T19:19:20.435Z,60.92
2019-03-05T19:21:52.228Z,60.97
2019-03-05T19:24:24.401Z,61.01
2019-03-05T19:26:56.146Z,61.02
2019-03-05T19:29:27.896Z,61.01
2019-03-05T19:31:59.999Z,60.98
2019-03-05T19:34:31.809Z,60.91
2019-03-05T19:37:03.640Z,60.89
2019-03-05T19:39:36.961Z,60.86
2019-03-05T19:42:08.796Z,60.88
2019-03-05T19:44:40.884Z,60.89
2019-03-05T19:47:12.983Z,60.95
2019-03-05T19:49:44.746Z,60.99
2019-03-05T19:52:16.912Z,61.02
2019-03-05T19:54:49.281Z,61.06
2019-03-05T19:57:21.037Z,61.06
2019-03-05T19:59:52.827Z,61.07
2019-03-05T20:02:24.902Z,61.10
2019-03-05T20:04:56.744Z,61.12
2019-03-05T20:07:28.724Z,61.16
2019-03-05T20:10:00.560Z,61.18
2019-03-05T20:12:32.558Z,61.19
2019-03-05T20:15:04.608Z,61.21
2019-03-05T20:17:36.399Z,61.23
2019-03-05T20:20:09.848Z,61.21
2019-03-05T20:22:41.653Z,61.20
2019-03-05T20:25:16.585Z,61.17
2019-03-05T20:27:51.593Z,61.17
2019-03-05T20:30:23.450Z,61.16
2019-03-05T20:32:55.475Z,61.16
2019-03-05T20:35:27.406Z,61.14
2019-03-05T20:37:59.393Z,61.12
2019-03-05T20:40:31.165Z,61.11
2019-03-05T20:43:03.517Z,61.09
2019-03-05T20:45:35.451Z,61.09
2019-03-05T20:48:07.513Z,61.11
2019-03-05T20:50:39.919Z,61.15
2019-03-05T20:53:11.704Z,61.19
2019-03-05T20:55:43.837Z,61.24
2019-03-05T20:58:16.143Z,61.19
2019-03-05T21:00:48.163Z,61.21
2019-03-05T21:03:20.044Z,61.18
2019-03-05T21:05:52.156Z,61.14
2019-03-05T21:08:23.936Z,61.12
2019-03-05T21:10:56.725Z,61.08
2019-03-05T21:13:29.188Z,61.07
2019-03-05T21:16:00.935Z,61.03
2019-03-05T21:18:32.723Z,61.00
2019-03-05T21:21:05.096Z,60.98
2019-03-05T21:23:36.888Z,60.98
2019-03-05T21:26:08.707Z,60.98
2019-03-05T21:28:41.568Z,61.00
2019-03-05T21:31:13.980Z,60.99
2019-03-05T21:33:46.024Z,60.98
2019-03-05T21:36:18.030Z,60.97
2019-03-05T21:38:49.751Z,60.97
2019-03-05T21:41:21.593Z,60.95
2019-03-05T21:43:53.992Z,60.95
2019-03-05T21:46:25.712Z,60.95
2019-03-05T21:48:57.800Z,60.92
2019-03-05T21:51:29.982Z,60.88
2019-03-05T21:54:01.788Z,60.87
2019-03-05T21:56:33.483Z,60.89
2019-03-05T21:59:05.600Z,60.86
2019-03-05T22:01:37.659Z,60.83
2019-03-05T22:04:09.541Z,60.78
2019-03-05T22:06:41.285Z,60.74
2019-03-05T22:09:13.099Z,60.67
2019-03-05T22:11:45.264Z,60.63
2019-03-05T22:14:17.302Z,60.67
2019-03-05T22:16:49.020Z,60.69
2019-03-05T22:19:20.758Z,60.71
2019-03-05T22:21:52.820Z,60.70
2019-03-05T22:24:24.556Z,60.73
2019-03-05T22:26:56.367Z,60.75
2019-03-05T22:29:28.214Z,60.75
2019-03-05T22:32:00.412Z,60.75
2019-03-05T22:34:32.082Z,60.78
2019-03-05T22:37:03.792Z,60.84
2019-03-05T22:39:35.473Z,60.87
2019-03-05T22:42:07.439Z,60.88
2019-03-05T22:44:39.267Z,60.86
2019-03-05T22:47:11.441Z,60.80
2019-03-05T22:49:43.166Z,60.76
2019-03-05T22:52:15.224Z,60.75
2019-03-05T22:54:46.917Z,60.74
2019-03-05T22:57:18.669Z,60.82
2019-03-05T22:59:50.347Z,60.94
2019-03-05T23:02:22.489Z,61.02
2019-03-05T23:04:54.961Z,61.09
2019-03-05T23:07:26.629Z,61.10
2019-03-05T23:09:58.340Z,61.13
2019-03-05T23:12:30.025Z,61.20
2019-03-05T23:15:02.069Z,61.27
2019-03-05T23:17:34.177Z,61.34
2019-03-05T23:20:06.764Z,61.36
2019-03-05T23:22:38.443Z,61.41
2019-03-05T23:25:11.390Z,61.45
2019-03-05T23:27:43.086Z,61.47
2019-03-05T23:30:15.639Z,61.49
2019-03-05T23:32:48.620Z,61.49
2019-03-05T23:35:20.558Z,61.45
2019-03-05T23:37:52.540Z,61.37
2019-03-05T23:40:24.313Z,61.31
2019-03-05T23:42:55.949Z,61.21
2019-03-05T23:45:27.785Z,61.21
2019-03-05T23:47:59.977Z,61.28
2019-03-05T23:50:31.632Z,61.37
2019-03-05T23:53:03.727Z,61.43
2019-03-05T23:55:35.490Z,61.46
2019-03-05T23:58:07.162Z,61.48
